createdAt,value
2023-03-31T00:00:43.283Z,65.75
2023-03-31T00:03:09.825Z,65.19
2023-03-31T00:05:36.351Z,64.91
2023-03-31T00:08:02.674Z,64.39
2023-03-31T00:10:29.069Z,65.00
2023-03-31T00:12:55.404Z,65.93
2023-03-31T00:15:21.707Z,65.22
2023-03-31T00:17:48.116Z,64.47
2023-03-31T00:20:14.438Z,64.21
2023-03-31T00:22:40.740Z,64.32
2023-03-31T00:25:07.079Z,64.12
2023-03-31T00:27:33.387Z,64.32
2023-03-31T00:29:59.680Z,64.03
2023-03-31T00:32:26.020Z,64.22
2023-03-31T00:34:52.340Z,64.66
2023-03-31T00:37:18.628Z,64.67
2023-03-31T00:39:44.954Z,65.19
2023-03-31T00:42:11.259Z,65.37
2023-03-31T00:44:37.548Z,65.14
2023-03-31T00:47:03.874Z,65.80
2023-03-31T00:49:30.245Z,65.44
2023-03-31T00:51:56.565Z,65.53
2023-03-31T00:54:22.904Z,63.74
2023-03-31T00:56:49.261Z,63.76
2023-03-31T00:59:15.594Z,64.09
2023-03-31T01:01:42.021Z,63.45
2023-03-31T01:04:08.527Z,62.43
2023-03-31T01:06:34.922Z,61.60
2023-03-31T01:09:01.229Z,61.25
2023-03-31T01:11:27.531Z,60.53
2023-03-31T01:13:53.820Z,59.84
2023-03-31T01:16:20.169Z,60.21
2023-03-31T01:18:46.669Z,60.67
2023-03-31T01:21:13.000Z,59.71
2023-03-31T01:23:39.342Z,58.44
2023-03-31T01:26:05.772Z,57.97
2023-03-31T01:28:32.256Z,58.90
2023-03-31T01:30:58.618Z,58.05
2023-03-31T01:33:24.955Z,57.50
2023-03-31T01:35:51.327Z,58.27
2023-03-31T01:38:17.729Z,57.88
2023-03-31T01:40:44.048Z,59.06
2023-03-31T01:43:10.337Z,58.07
2023-03-31T01:45:36.667Z,57.66
2023-03-31T01:48:03.096Z,58.30
2023-03-31T01:50:29.485Z,58.78
2023-03-31T01:52:55.805Z,59.55
2023-03-31T01:55:22.106Z,59.98
2023-03-31T01:57:48.430Z,60.33
2023-03-31T02:00:14.779Z,61.92
2023-03-31T02:02:41.205Z,63.37
2023-03-31T02:05:07.563Z,62.76
2023-03-31T02:07:33.892Z,63.40
2023-03-31T02:10:00.199Z,64.30
2023-03-31T02:12:26.490Z,64.93
2023-03-31T02:14:52.829Z,65.11
2023-03-31T02:17:22.007Z,64.77
2023-03-31T02:19:48.341Z,65.53
2023-03-31T02:22:14.664Z,65.57
2023-03-31T02:24:40.955Z,65.20
2023-03-31T02:27:07.240Z,65.18
2023-03-31T02:29:33.599Z,65.97
2023-03-31T02:31:59.979Z,66.01
2023-03-31T02:34:26.371Z,64.66
2023-03-31T02:36:52.693Z,65.15
2023-03-31T02:39:18.989Z,65.02
2023-03-31T02:41:45.278Z,65.30
2023-03-31T02:44:11.607Z,65.70
2023-03-31T02:46:37.920Z,65.50
2023-03-31T02:49:04.250Z,65.29
2023-03-31T02:51:30.579Z,65.25
2023-03-31T02:53:56.865Z,66.28
2023-03-31T02:56:23.160Z,65.31
2023-03-31T02:58:49.493Z,65.47
2023-03-31T03:01:15.859Z,65.16
2023-03-31T03:03:42.226Z,64.56
2023-03-31T03:06:08.709Z,64.85
2023-03-31T03:08:35.148Z,64.71
2023-03-31T03:11:01.458Z,64.66
2023-03-31T03:13:27.771Z,64.18
2023-03-31T03:15:54.059Z,64.67
2023-03-31T03:18:20.406Z,64.98
2023-03-31T03:20:46.742Z,64.95
2023-03-31T03:23:13.038Z,67.21
2023-03-31T03:25:39.343Z,69.51
2023-03-31T03:28:05.655Z,72.40
2023-03-31T03:30:32.021Z,72.12
2023-03-31T03:32:58.386Z,73.12
2023-03-31T03:35:24.774Z,72.40
2023-03-31T03:37:51.100Z,72.80
2023-03-31T03:40:17.413Z,72.59
2023-03-31T03:42:43.725Z,72.63
2023-03-31T03:45:10.030Z,71.34
2023-03-31T03:47:36.390Z,71.18
2023-03-31T03:50:02.792Z,71.23
2023-03-31T03:52:29.092Z,69.87
2023-03-31T03:54:55.387Z,69.49
2023-03-31T03:57:21.774Z,68.49
2023-03-31T03:59:48.116Z,68.55
2023-03-31T04:02:14.480Z,68.38
2023-03-31T04:04:40.932Z,67.10
2023-03-31T04:07:07.245Z,67.49
2023-03-31T04:09:33.539Z,67.08
2023-03-31T04:11:59.879Z,67.34
2023-03-31T04:14:26.187Z,67.38
2023-03-31T04:16:52.488Z,68.11
2023-03-31T04:19:20.245Z,67.98
2023-03-31T04:21:46.531Z,68.53
2023-03-31T04:24:12.844Z,70.34
2023-03-31T04:26:39.216Z,71.31
2023-03-31T04:29:05.537Z,71.06
2023-03-31T04:31:32.522Z,71.13
2023-03-31T04:33:58.895Z,70.57
2023-03-31T04:36:25.196Z,71.04
2023-03-31T04:38:52.438Z,70.36
2023-03-31T04:41:19.592Z,69.55
2023-03-31T04:43:45.897Z,70.00
2023-03-31T04:46:12.254Z,69.42
2023-03-31T04:48:38.630Z,69.02
2023-03-31T04:51:04.942Z,67.40
2023-03-31T04:53:31.235Z,65.56
2023-03-31T04:55:57.566Z,66.07
2023-03-31T04:58:23.862Z,67.32
2023-03-31T05:00:50.156Z,68.24
2023-03-31T05:03:16.585Z,67.59
2023-03-31T05:05:42.937Z,68.34
2023-03-31T05:08:09.240Z,68.63
2023-03-31T05:10:35.554Z,67.69
2023-03-31T05:13:01.867Z,67.01
2023-03-31T05:15:28.178Z,68.48
2023-03-31T05:17:54.520Z,67.39
2023-03-31T05:20:20.861Z,66.53
2023-03-31T05:22:47.154Z,66.34
2023-03-31T05:25:13.491Z,66.20
2023-03-31T05:27:39.789Z,66.39
2023-03-31T05:30:06.093Z,66.09
2023-03-31T05:32:32.449Z,66.13
2023-03-31T05:34:58.745Z,65.86
2023-03-31T05:37:25.059Z,66.23
2023-03-31T05:39:51.398Z,67.90
2023-03-31T05:42:17.691Z,71.42
2023-03-31T05:44:43.989Z,70.25
2023-03-31T05:47:10.348Z,68.89
2023-03-31T05:49:36.650Z,69.24
2023-03-31T05:52:02.991Z,68.22
2023-03-31T05:54:29.329Z,68.80
2023-03-31T05:56:55.644Z,69.48
2023-03-31T05:59:22.057Z,69.69
2023-03-31T06:01:48.469Z,68.74
2023-03-31T06:04:15.007Z,69.52
2023-03-31T06:06:41.326Z,67.23
2023-03-31T06:09:07.661Z,67.65
2023-03-31T06:11:33.964Z,66.80
2023-03-31T06:14:00.249Z,66.65
2023-03-31T06:16:26.606Z,65.99
2023-03-31T06:18:52.948Z,66.52
2023-03-31T06:21:19.261Z,67.31
2023-03-31T06:23:45.595Z,67.57
2023-03-31T06:26:12.294Z,66.61
2023-03-31T06:28:38.604Z,66.62
2023-03-31T06:31:05.142Z,66.74
2023-03-31T06:33:31.736Z,66.66
2023-03-31T06:35:58.073Z,66.51
2023-03-31T06:38:24.423Z,66.27
2023-03-31T06:40:50.727Z,67.29
2023-03-31T06:43:17.033Z,67.77
2023-03-31T06:45:43.391Z,69.85
2023-03-31T06:48:09.776Z,69.55
2023-03-31T06:50:36.064Z,69.69
2023-03-31T06:53:02.420Z,70.51
2023-03-31T06:55:30.586Z,69.86
2023-03-31T06:57:56.893Z,69.03
2023-03-31T07:00:23.428Z,67.99
2023-03-31T07:02:49.863Z,68.66
2023-03-31T07:05:16.247Z,68.57
2023-03-31T07:07:44.321Z,67.72
2023-03-31T07:10:12.174Z,68.04
2023-03-31T07:12:38.478Z,67.93
2023-03-31T07:15:04.835Z,68.24
2023-03-31T07:17:31.162Z,66.85
2023-03-31T07:19:58.779Z,67.44
2023-03-31T07:22:25.114Z,66.79
2023-03-31T07:24:51.405Z,66.48
2023-03-31T07:27:17.690Z,67.19
2023-03-31T07:29:47.006Z,65.66
2023-03-31T07:32:13.365Z,64.94
2023-03-31T07:34:39.727Z,65.10
2023-03-31T07:37:06.049Z,62.91
2023-03-31T07:39:32.376Z,62.98
2023-03-31T07:41:58.660Z,63.46
2023-03-31T07:44:24.954Z,61.92
2023-03-31T07:46:51.240Z,61.86
2023-03-31T07:49:17.538Z,61.46
2023-03-31T07:51:43.851Z,57.08
2023-03-31T07:54:10.221Z,54.01
2023-03-31T07:56:36.503Z,52.63
2023-03-31T07:59:02.826Z,54.11
2023-03-31T08:01:29.119Z,58.50
2023-03-31T08:03:55.739Z,57.22
2023-03-31T08:06:22.373Z,61.30
2023-03-31T08:08:48.768Z,62.88
2023-03-31T08:11:15.069Z,62.90
2023-03-31T08:13:41.416Z,64.62
2023-03-31T08:16:07.975Z,65.72
2023-03-31T08:18:34.507Z,65.57
2023-03-31T08:21:00.827Z,65.05
2023-03-31T08:23:27.107Z,64.91
2023-03-31T08:25:53.386Z,63.46
2023-03-31T08:28:19.690Z,63.49
2023-03-31T08:30:45.971Z,64.21
2023-03-31T08:33:12.261Z,65.24
2023-03-31T08:35:38.624Z,67.50
2023-03-31T08:38:04.912Z,67.34
2023-03-31T08:40:31.197Z,66.59
2023-03-31T08:42:57.495Z,64.75
2023-03-31T08:45:23.762Z,65.06
2023-03-31T08:47:50.064Z,64.58
2023-03-31T08:50:16.421Z,64.39
2023-03-31T08:52:42.696Z,62.50
2023-03-31T08:55:08.979Z,61.51
2023-03-31T08:57:35.312Z,60.51
2023-03-31T09:00:01.635Z,60.93
2023-03-31T09:02:28.128Z,59.27
2023-03-31T09:04:54.651Z,60.54
2023-03-31T09:07:21.110Z,57.27
2023-03-31T09:09:47.556Z,55.82
2023-03-31T09:12:13.917Z,56.00
2023-03-31T09:14:40.225Z,53.69
2023-03-31T09:17:06.682Z,54.29
2023-03-31T09:19:33.117Z,55.10
2023-03-31T09:21:59.404Z,54.24
2023-03-31T09:24:25.729Z,55.95
2023-03-31T09:26:52.060Z,56.21
2023-03-31T09:29:18.352Z,55.70
2023-03-31T09:31:44.760Z,56.57
2023-03-31T09:34:11.100Z,56.48
2023-03-31T09:36:37.403Z,55.33
2023-03-31T09:39:03.699Z,52.39
2023-03-31T09:41:31.836Z,52.92
2023-03-31T09:43:59.297Z,52.46
2023-03-31T09:46:25.603Z,56.98
2023-03-31T09:48:51.966Z,59.26
2023-03-31T09:51:18.263Z,57.13
2023-03-31T09:53:44.571Z,56.46
2023-03-31T09:56:10.904Z,55.78
2023-03-31T09:58:37.224Z,54.44
2023-03-31T10:01:03.604Z,53.77
2023-03-31T10:03:30.022Z,53.04
2023-03-31T10:05:56.339Z,52.01
2023-03-31T10:08:22.624Z,51.45
2023-03-31T10:10:48.976Z,51.90
2023-03-31T10:13:15.285Z,50.59
2023-03-31T10:15:42.428Z,49.30
2023-03-31T10:18:08.884Z,47.76
2023-03-31T10:20:35.189Z,47.79
2023-03-31T10:23:01.807Z,47.75
2023-03-31T10:25:28.190Z,47.73
2023-03-31T10:27:54.511Z,46.85
2023-03-31T10:30:20.807Z,45.76
2023-03-31T10:32:50.353Z,48.01
2023-03-31T10:35:18.278Z,48.13
2023-03-31T10:37:44.582Z,45.98
2023-03-31T10:40:10.906Z,44.85
2023-03-31T10:42:37.213Z,42.14
2023-03-31T10:45:03.531Z,41.26
2023-03-31T10:47:29.902Z,42.10
2023-03-31T10:49:56.208Z,40.40
2023-03-31T10:52:24.310Z,39.83
2023-03-31T10:54:50.633Z,39.49
2023-03-31T10:57:16.990Z,40.92
2023-03-31T10:59:43.311Z,39.26
2023-03-31T11:02:09.669Z,39.57
2023-03-31T11:04:36.024Z,47.75
2023-03-31T11:07:19.202Z,47.75
2023-03-31T11:09:45.499Z,44.11
2023-03-31T11:12:11.786Z,48.85
2023-03-31T11:14:38.160Z,54.94
2023-03-31T11:17:04.595Z,54.01
2023-03-31T11:19:30.943Z,52.46
2023-03-31T11:21:57.275Z,54.10
2023-03-31T11:24:23.572Z,52.77
2023-03-31T11:26:49.878Z,50.27
2023-03-31T11:29:16.201Z,48.85
2023-03-31T11:31:42.532Z,51.07
2023-03-31T11:34:08.849Z,49.56
2023-03-31T11:36:35.183Z,49.70
2023-03-31T11:39:01.495Z,48.73
2023-03-31T11:41:27.842Z,47.53
2023-03-31T11:43:54.178Z,45.95
2023-03-31T11:46:20.522Z,47.45
2023-03-31T11:48:46.916Z,46.45
2023-03-31T11:51:13.242Z,46.89
2023-03-31T11:53:39.549Z,46.91
2023-03-31T11:56:05.988Z,45.47
2023-03-31T11:58:32.406Z,46.16
2023-03-31T12:01:00.115Z,47.77
2023-03-31T12:03:27.566Z,47.04
2023-03-31T12:05:54.237Z,48.80
2023-03-31T12:08:20.698Z,48.36
2023-03-31T12:10:47.005Z,49.39
2023-03-31T12:13:13.360Z,48.34
2023-03-31T12:15:39.695Z,48.83
2023-03-31T12:18:06.063Z,48.91
2023-03-31T12:20:32.459Z,50.29
2023-03-31T12:22:59.962Z,49.30
2023-03-31T12:25:26.276Z,47.26
2023-03-31T12:27:52.600Z,47.55
2023-03-31T12:30:18.890Z,47.69
2023-03-31T12:32:45.231Z,47.03
2023-03-31T12:35:11.566Z,47.11
2023-03-31T12:37:37.860Z,46.05
2023-03-31T12:40:04.170Z,46.68
2023-03-31T12:42:30.484Z,47.03
2023-03-31T12:44:56.786Z,47.31
2023-03-31T12:47:23.141Z,47.31
2023-03-31T12:49:49.468Z,48.47
2023-03-31T12:52:15.782Z,48.96
2023-03-31T12:54:42.082Z,49.86
2023-03-31T12:57:08.463Z,50.66
2023-03-31T12:59:34.806Z,52.62
2023-03-31T13:02:01.152Z,52.96
2023-03-31T13:04:27.546Z,54.01
2023-03-31T13:06:53.854Z,53.46
2023-03-31T13:09:20.169Z,51.33
2023-03-31T13:11:46.487Z,52.73
2023-03-31T13:14:12.781Z,52.23
2023-03-31T13:16:39.110Z,52.06
2023-03-31T13:19:05.473Z,51.69
2023-03-31T13:21:31.766Z,52.62
2023-03-31T13:23:58.058Z,51.77
2023-03-31T13:26:24.418Z,51.20
2023-03-31T13:28:50.783Z,51.49
2023-03-31T13:31:17.107Z,51.15
2023-03-31T13:33:43.473Z,47.96
2023-03-31T13:36:10.085Z,44.44
2023-03-31T13:38:36.593Z,43.92
2023-03-31T13:41:02.909Z,44.48
2023-03-31T13:43:29.205Z,42.78
2023-03-31T13:45:55.653Z,43.70
2023-03-31T13:48:22.055Z,42.84
2023-03-31T13:50:48.358Z,44.08
2023-03-31T13:53:14.641Z,40.54
2023-03-31T13:55:40.940Z,40.13
2023-03-31T13:58:24.871Z,39.98
2023-03-31T14:00:53.523Z,39.56
2023-03-31T14:03:19.921Z,40.48
2023-03-31T14:05:46.298Z,40.51
2023-03-31T14:08:12.639Z,41.81
2023-03-31T14:10:38.953Z,42.86
2023-03-31T14:13:05.250Z,54.12
2023-03-31T14:15:31.615Z,85.84
2023-03-31T14:17:57.996Z,87.77
2023-03-31T14:20:24.348Z,71.68
2023-03-31T14:22:50.693Z,87.30
2023-03-31T14:25:17.004Z,70.61
2023-03-31T14:27:43.315Z,69.78
2023-03-31T14:30:09.680Z,67.27
2023-03-31T14:32:36.047Z,67.44
2023-03-31T14:35:02.403Z,64.81
2023-03-31T14:37:28.735Z,63.70
2023-03-31T14:39:55.106Z,63.27
2023-03-31T14:42:21.473Z,62.04
2023-03-31T14:44:48.559Z,61.11
2023-03-31T14:47:15.147Z,62.40
2023-03-31T14:49:41.426Z,60.59
2023-03-31T14:52:07.746Z,60.83
2023-03-31T14:54:35.208Z,59.48
2023-03-31T14:57:01.523Z,58.96
2023-03-31T14:59:27.862Z,56.84
2023-03-31T15:01:54.258Z,56.60
2023-03-31T15:04:23.761Z,57.26
2023-03-31T15:06:54.997Z,59.26
2023-03-31T15:09:21.291Z,57.39
2023-03-31T15:11:47.583Z,58.27
2023-03-31T15:14:13.907Z,57.27
2023-03-31T15:16:40.294Z,56.74
2023-03-31T15:19:06.620Z,56.03
2023-03-31T15:21:33.064Z,54.90
2023-03-31T15:23:59.361Z,56.28
2023-03-31T15:26:34.317Z,55.74
2023-03-31T15:29:01.192Z,54.55
2023-03-31T15:31:27.587Z,53.46
2023-03-31T15:33:54.075Z,56.71
2023-03-31T15:36:20.567Z,53.97
2023-03-31T15:38:47.001Z,55.45
2023-03-31T15:41:13.316Z,55.46
2023-03-31T15:43:39.648Z,54.92
2023-03-31T15:46:05.972Z,54.97
2023-03-31T15:48:32.273Z,55.14
2023-03-31T15:50:58.587Z,56.02
2023-03-31T15:53:24.876Z,55.05
2023-03-31T15:55:51.173Z,55.12
2023-03-31T15:58:17.505Z,54.75
2023-03-31T16:00:43.817Z,54.73
2023-03-31T16:03:10.156Z,54.22
2023-03-31T16:05:43.629Z,54.27
2023-03-31T16:08:13.979Z,52.99
2023-03-31T16:10:40.292Z,52.05
2023-03-31T16:13:06.587Z,52.32
2023-03-31T16:15:32.871Z,50.94
2023-03-31T16:17:59.261Z,52.01
2023-03-31T16:20:25.618Z,50.80
2023-03-31T16:22:53.153Z,50.99
2023-03-31T16:25:19.466Z,52.18
2023-03-31T16:27:45.755Z,52.03
2023-03-31T16:30:12.062Z,51.98
2023-03-31T16:32:38.390Z,51.31
2023-03-31T16:35:04.692Z,51.18
2023-03-31T16:37:30.978Z,51.97
2023-03-31T16:39:57.346Z,51.28
2023-03-31T16:42:23.815Z,52.33
2023-03-31T16:45:04.370Z,62.19
2023-03-31T16:47:36.608Z,69.92
2023-03-31T16:50:03.041Z,71.99
2023-03-31T16:52:29.325Z,72.16
2023-03-31T16:54:55.624Z,68.02
2023-03-31T16:57:21.935Z,68.18
2023-03-31T16:59:48.278Z,64.69
2023-03-31T17:02:14.623Z,66.52
2023-03-31T17:04:40.927Z,68.37
2023-03-31T17:07:07.216Z,68.27
2023-03-31T17:09:33.536Z,69.16
2023-03-31T17:11:59.824Z,65.19
2023-03-31T17:14:26.110Z,66.81
2023-03-31T17:16:52.459Z,68.48
2023-03-31T17:19:18.788Z,67.78
2023-03-31T17:21:45.098Z,67.24
2023-03-31T17:24:11.438Z,66.11
2023-03-31T17:26:37.743Z,67.20
2023-03-31T17:29:04.041Z,66.69
2023-03-31T17:31:30.379Z,66.09
2023-03-31T17:33:56.726Z,65.48
2023-03-31T17:36:23.009Z,66.72
2023-03-31T17:38:49.414Z,67.39
2023-03-31T17:41:15.755Z,66.47
2023-03-31T17:43:42.025Z,67.23
2023-03-31T17:46:10.832Z,67.26
2023-03-31T17:48:38.604Z,67.96
2023-03-31T17:51:04.900Z,66.85
2023-03-31T17:53:31.227Z,67.17
2023-03-31T17:55:57.517Z,65.72
2023-03-31T17:58:23.804Z,65.96
2023-03-31T18:00:50.109Z,66.45
2023-03-31T18:03:16.396Z,63.27
2023-03-31T18:05:42.669Z,65.41
2023-03-31T18:08:08.970Z,65.03
2023-03-31T18:10:35.566Z,65.42
2023-03-31T18:13:02.767Z,64.99
2023-03-31T18:15:29.084Z,64.79
2023-03-31T18:17:55.447Z,64.14
2023-03-31T18:20:21.894Z,65.21
2023-03-31T18:22:48.202Z,65.73
2023-03-31T18:25:14.497Z,64.69
2023-03-31T18:27:40.809Z,65.37
2023-03-31T18:30:07.158Z,65.35
2023-03-31T18:32:33.609Z,65.77
2023-03-31T18:34:59.951Z,65.08
2023-03-31T18:37:26.263Z,65.02
2023-03-31T18:39:52.556Z,63.90
2023-03-31T18:42:18.862Z,63.51
2023-03-31T18:44:45.180Z,63.88
2023-03-31T18:47:11.497Z,64.30
2023-03-31T18:49:37.806Z,63.77
2023-03-31T18:52:04.277Z,64.02
2023-03-31T18:54:30.587Z,63.65
2023-03-31T18:56:56.988Z,64.41
2023-03-31T18:59:23.316Z,64.06
2023-03-31T19:01:49.641Z,63.83
2023-03-31T19:04:16.014Z,63.96
2023-03-31T19:06:42.331Z,64.46
2023-03-31T19:09:08.652Z,64.88
2023-03-31T19:11:35.009Z,64.30
2023-03-31T19:14:01.317Z,63.86
2023-03-31T19:16:27.744Z,64.43
2023-03-31T19:18:54.087Z,64.19
2023-03-31T19:21:20.424Z,64.04
2023-03-31T19:23:46.718Z,64.36
2023-03-31T19:26:13.012Z,63.55
2023-03-31T19:28:39.326Z,63.30
2023-03-31T19:31:05.645Z,64.00
2023-03-31T19:33:31.951Z,63.87
2023-03-31T19:35:58.302Z,65.19
2023-03-31T19:38:24.620Z,65.97
2023-03-31T19:40:50.912Z,68.04
2023-03-31T19:43:17.224Z,68.46
2023-03-31T19:45:43.543Z,70.81
2023-03-31T19:48:09.944Z,71.97
2023-03-31T19:50:36.297Z,70.39
2023-03-31T19:53:02.599Z,72.40
2023-03-31T19:55:29.115Z,70.84
2023-03-31T19:57:55.641Z,70.76
2023-03-31T20:00:21.919Z,70.49
2023-03-31T20:02:48.388Z,73.11
2023-03-31T20:05:14.867Z,71.67
2023-03-31T20:07:41.164Z,71.41
2023-03-31T20:10:07.484Z,71.45
2023-03-31T20:12:33.795Z,71.85
2023-03-31T20:15:00.115Z,72.26
2023-03-31T20:17:26.408Z,72.26
2023-03-31T20:19:52.728Z,73.03
2023-03-31T20:22:19.018Z,73.54
2023-03-31T20:24:45.319Z,72.79
2023-03-31T20:27:11.639Z,74.37
2023-03-31T20:29:37.937Z,74.13
2023-03-31T20:32:04.230Z,74.77
2023-03-31T20:34:30.556Z,75.76
2023-03-31T20:36:56.854Z,76.80
2023-03-31T20:39:23.154Z,76.38
2023-03-31T20:41:49.484Z,77.95
2023-03-31T20:44:16.082Z,77.51
2023-03-31T20:46:42.455Z,77.60
2023-03-31T20:49:08.811Z,78.60
2023-03-31T20:51:35.117Z,77.68
2023-03-31T20:54:01.476Z,77.92
2023-03-31T20:56:27.895Z,77.49
2023-03-31T20:58:54.198Z,77.40
2023-03-31T21:01:20.520Z,78.33
2023-03-31T21:03:46.939Z,76.85
2023-03-31T21:06:13.310Z,77.94
2023-03-31T21:08:39.688Z,78.58
2023-03-31T21:11:06.010Z,79.09
2023-03-31T21:13:32.307Z,78.83
2023-03-31T21:15:58.599Z,77.61
2023-03-31T21:18:24.915Z,78.54
2023-03-31T21:20:51.219Z,78.97
2023-03-31T21:23:17.512Z,77.93
2023-03-31T21:25:43.821Z,77.84
2023-03-31T21:28:10.118Z,78.57
2023-03-31T21:30:36.421Z,79.08
2023-03-31T21:33:02.765Z,78.87
2023-03-31T21:35:29.106Z,79.04
2023-03-31T21:37:55.479Z,78.27
2023-03-31T21:40:21.787Z,78.76
2023-03-31T21:42:49.615Z,79.40
2023-03-31T21:45:15.920Z,80.13
2023-03-31T21:47:42.245Z,79.11
2023-03-31T21:50:08.561Z,79.66
2023-03-31T21:52:34.852Z,79.69
2023-03-31T21:55:01.183Z,79.67
2023-03-31T21:57:27.499Z,79.59
2023-03-31T21:59:53.831Z,79.38
2023-03-31T22:02:20.148Z,80.43
2023-03-31T22:04:46.533Z,79.67
2023-03-31T22:07:12.832Z,79.68
2023-03-31T22:09:39.177Z,80.35
2023-03-31T22:12:05.454Z,80.31
2023-03-31T22:14:31.725Z,82.15
2023-03-31T22:16:58.022Z,81.66
2023-03-31T22:19:24.304Z,81.38
2023-03-31T22:21:50.615Z,81.26
2023-03-31T22:24:16.923Z,80.81
2023-03-31T22:26:43.228Z,80.01
2023-03-31T22:29:09.539Z,80.70
2023-03-31T22:31:35.870Z,80.38
2023-03-31T22:34:02.178Z,79.88
2023-03-31T22:36:28.510Z,82.26
2023-03-31T22:38:54.858Z,82.18
2023-03-31T22:41:21.151Z,81.62
2023-03-31T22:43:47.437Z,82.17
2023-03-31T22:46:13.792Z,82.44
2023-03-31T22:48:40.142Z,81.14
2023-03-31T22:51:06.433Z,80.74
2023-03-31T22:53:32.732Z,81.53
2023-03-31T22:55:59.023Z,82.35
2023-03-31T22:58:25.337Z,80.78
2023-03-31T23:00:51.700Z,94.36
2023-03-31T23:03:18.022Z,89.01
2023-03-31T23:05:44.319Z,82.65
2023-03-31T23:08:10.736Z,83.67
2023-03-31T23:10:37.027Z,84.38
2023-03-31T23:13:03.332Z,83.27
2023-03-31T23:15:30.012Z,83.81
2023-03-31T23:17:56.494Z,81.48
2023-03-31T23:20:22.822Z,81.14
2023-03-31T23:22:49.124Z,81.63
2023-03-31T23:25:15.409Z,81.80
2023-03-31T23:27:41.694Z,81.15
2023-03-31T23:30:08.002Z,81.60
2023-03-31T23:32:34.317Z,81.99
2023-03-31T23:35:00.631Z,81.80
2023-03-31T23:37:27.010Z,81.84
2023-03-31T23:39:53.293Z,81.39
2023-03-31T23:42:19.582Z,81.44
2023-03-31T23:44:45.909Z,82.01
2023-03-31T23:47:12.220Z,81.78
2023-03-31T23:49:38.513Z,81.56
2023-03-31T23:52:04.832Z,81.93
2023-03-31T23:54:31.125Z,81.83
2023-03-31T23:56:57.428Z,81.62
2023-03-31T23:59:23.765Z,81.56
